sensor_id;sensor_type;location;lat;lon;timestamp;P1;durP1;ratioP1;P2;durP2;ratioP2
2462;SDS011;1243;54.298;10.172;2023-01-26T00:00:58;36.95;;;17.25;;
2462;SDS011;1243;54.298;10.172;2023-01-26T00:03:25;35.15;;;16.00;;
2462;SDS011;1243;54.298;10.172;2023-01-26T00:05:51;41.85;;;18.80;;
2462;SDS011;1243;54.298;10.172;2023-01-26T00:08:17;41.27;;;15.50;;
2462;SDS011;1243;54.298;10.172;2023-01-26T00:10:43;32.07;;;13.40;;
2462;SDS011;1243;54.298;10.172;2023-01-26T00:13:15;35.53;;;15.68;;
2462;SDS011;1243;54.298;10.172;2023-01-26T00:15:46;31.08;;;16.33;;
2462;SDS011;1243;54.298;10.172;2023-01-26T00:18:12;32.30;;;15.87;;
2462;SDS011;1243;54.298;10.172;2023-01-26T00:20:38;27.50;;;13.37;;
2462;SDS011;1243;54.298;10.172;2023-01-26T00:23:03;35.60;;;17.57;;
2462;SDS011;1243;54.298;10.172;2023-01-26T00:25:29;32.17;;;15.57;;
2462;SDS011;1243;54.298;10.172;2023-01-26T00:27:55;33.97;;;17.00;;
2462;SDS011;1243;54.298;10.172;2023-01-26T00:30:21;36.90;;;16.80;;
2462;SDS011;1243;54.298;10.172;2023-01-26T00:32:47;40.72;;;16.15;;
2462;SDS011;1243;54.298;10.172;2023-01-26T00:35:13;43.17;;;18.23;;
2462;SDS011;1243;54.298;10.172;2023-01-26T00:37:41;31.50;;;16.00;;
2462;SDS011;1243;54.298;10.172;2023-01-26T00:40:08;45.40;;;19.77;;
2462;SDS011;1243;54.298;10.172;2023-01-26T00:42:34;42.03;;;18.23;;
2462;SDS011;1243;54.298;10.172;2023-01-26T00:45:00;43.43;;;17.67;;
2462;SDS011;1243;54.298;10.172;2023-01-26T00:47:26;39.57;;;16.67;;
2462;SDS011;1243;54.298;10.172;2023-01-26T00:49:52;39.97;;;16.80;;
2462;SDS011;1243;54.298;10.172;2023-01-26T00:52:17;46.37;;;16.27;;
2462;SDS011;1243;54.298;10.172;2023-01-26T00:54:43;33.97;;;17.47;;
2462;SDS011;1243;54.298;10.172;2023-01-26T00:57:09;30.03;;;15.10;;
2462;SDS011;1243;54.298;10.172;2023-01-26T00:59:35;39.57;;;16.27;;
2462;SDS011;1243;54.298;10.172;2023-01-26T01:02:00;35.17;;;15.70;;
2462;SDS011;1243;54.298;10.172;2023-01-26T01:04:27;31.73;;;15.93;;
2462;SDS011;1243;54.298;10.172;2023-01-26T01:06:57;29.63;;;15.25;;
2462;SDS011;1243;54.298;10.172;2023-01-26T01:09:23;33.50;;;15.88;;
2462;SDS011;1243;54.298;10.172;2023-01-26T01:11:49;32.90;;;13.70;;
2462;SDS011;1243;54.298;10.172;2023-01-26T01:14:15;30.05;;;15.65;;
2462;SDS011;1243;54.298;10.172;2023-01-26T01:16:41;33.00;;;14.27;;
2462;SDS011;1243;54.298;10.172;2023-01-26T01:19:07;31.92;;;15.90;;
2462;SDS011;1243;54.298;10.172;2023-01-26T01:21:37;22.20;;;12.70;;
2462;SDS011;1243;54.298;10.172;2023-01-26T01:24:03;38.47;;;16.73;;
2462;SDS011;1243;54.298;10.172;2023-01-26T01:26:29;25.73;;;14.80;;
2462;SDS011;1243;54.298;10.172;2023-01-26T01:28:55;36.20;;;14.13;;
2462;SDS011;1243;54.298;10.172;2023-01-26T01:31:21;24.02;;;13.57;;
2462;SDS011;1243;54.298;10.172;2023-01-26T01:33:48;31.15;;;12.02;;
2462;SDS011;1243;54.298;10.172;2023-01-26T01:36:15;26.20;;;13.30;;
2462;SDS011;1243;54.298;10.172;2023-01-26T01:38:41;32.95;;;13.20;;
2462;SDS011;1243;54.298;10.172;2023-01-26T01:41:08;24.65;;;13.57;;
2462;SDS011;1243;54.298;10.172;2023-01-26T01:43:34;34.40;;;15.93;;
2462;SDS011;1243;54.298;10.172;2023-01-26T01:46:02;29.35;;;13.32;;
2462;SDS011;1243;54.298;10.172;2023-01-26T01:51:10;27.77;;;12.88;;
2462;SDS011;1243;54.298;10.172;2023-01-26T01:53:41;30.23;;;15.35;;
2462;SDS011;1243;54.298;10.172;2023-01-26T01:56:11;32.67;;;13.10;;
2462;SDS011;1243;54.298;10.172;2023-01-26T01:58:43;25.95;;;12.82;;
2462;SDS011;1243;54.298;10.172;2023-01-26T02:01:09;19.02;;;12.07;;
2462;SDS011;1243;54.298;10.172;2023-01-26T02:03:36;21.90;;;11.15;;
2462;SDS011;1243;54.298;10.172;2023-01-26T02:08:32;29.02;;;13.55;;
2462;SDS011;1243;54.298;10.172;2023-01-26T02:11:16;31.92;;;11.73;;
2462;SDS011;1243;54.298;10.172;2023-01-26T02:14:02;15.95;;;10.82;;
2462;SDS011;1243;54.298;10.172;2023-01-26T02:16:32;27.30;;;14.02;;
2462;SDS011;1243;54.298;10.172;2023-01-26T02:18:58;28.40;;;13.98;;
2462;SDS011;1243;54.298;10.172;2023-01-26T02:21:24;27.58;;;13.18;;
2462;SDS011;1243;54.298;10.172;2023-01-26T02:24:05;26.07;;;11.50;;
2462;SDS011;1243;54.298;10.172;2023-01-26T02:26:32;30.27;;;14.20;;
2462;SDS011;1243;54.298;10.172;2023-01-26T02:29:00;19.77;;;12.27;;
2462;SDS011;1243;54.298;10.172;2023-01-26T02:31:27;24.83;;;14.32;;
2462;SDS011;1243;54.298;10.172;2023-01-26T02:33:53;26.88;;;12.77;;
2462;SDS011;1243;54.298;10.172;2023-01-26T02:36:23;19.57;;;11.37;;
2462;SDS011;1243;54.298;10.172;2023-01-26T02:41:36;29.42;;;12.57;;
2462;SDS011;1243;54.298;10.172;2023-01-26T02:44:38;26.08;;;11.40;;
2462;SDS011;1243;54.298;10.172;2023-01-26T02:47:15;27.52;;;10.65;;
2462;SDS011;1243;54.298;10.172;2023-01-26T02:49:44;26.75;;;12.50;;
2462;SDS011;1243;54.298;10.172;2023-01-26T02:52:13;22.63;;;12.60;;
2462;SDS011;1243;54.298;10.172;2023-01-26T02:54:39;25.27;;;11.15;;
2462;SDS011;1243;54.298;10.172;2023-01-26T02:57:24;23.92;;;10.60;;
2462;SDS011;1243;54.298;10.172;2023-01-26T02:59:50;18.60;;;11.32;;
2462;SDS011;1243;54.298;10.172;2023-01-26T03:02:16;19.27;;;10.57;;
2462;SDS011;1243;54.298;10.172;2023-01-26T03:04:42;17.13;;;9.57;;
2462;SDS011;1243;54.298;10.172;2023-01-26T03:07:08;19.52;;;9.63;;
2462;SDS011;1243;54.298;10.172;2023-01-26T03:09:34;19.17;;;10.20;;
2462;SDS011;1243;54.298;10.172;2023-01-26T03:12:00;20.63;;;11.33;;
2462;SDS011;1243;54.298;10.172;2023-01-26T03:14:26;24.30;;;9.47;;
2462;SDS011;1243;54.298;10.172;2023-01-26T03:16:52;16.53;;;8.40;;
2462;SDS011;1243;54.298;10.172;2023-01-26T03:19:17;15.97;;;9.60;;
2462;SDS011;1243;54.298;10.172;2023-01-26T03:22:01;21.70;;;9.32;;
2462;SDS011;1243;54.298;10.172;2023-01-26T03:24:45;14.23;;;8.77;;
2462;SDS011;1243;54.298;10.172;2023-01-26T03:27:32;21.58;;;10.13;;
2462;SDS011;1243;54.298;10.172;2023-01-26T03:30:02;14.23;;;8.02;;
2462;SDS011;1243;54.298;10.172;2023-01-26T03:32:28;22.07;;;9.80;;
2462;SDS011;1243;54.298;10.172;2023-01-26T03:34:53;18.97;;;9.70;;
2462;SDS011;1243;54.298;10.172;2023-01-26T03:37:19;19.10;;;9.67;;
2462;SDS011;1243;54.298;10.172;2023-01-26T03:39:47;15.90;;;9.27;;
2462;SDS011;1243;54.298;10.172;2023-01-26T03:42:34;16.38;;;7.90;;
2462;SDS011;1243;54.298;10.172;2023-01-26T03:45:20;17.95;;;9.60;;
2462;SDS011;1243;54.298;10.172;2023-01-26T03:48:05;13.93;;;8.32;;
2462;SDS011;1243;54.298;10.172;2023-01-26T03:50:51;14.02;;;8.63;;
2462;SDS011;1243;54.298;10.172;2023-01-26T03:53:35;16.25;;;9.15;;
2462;SDS011;1243;54.298;10.172;2023-01-26T03:56:20;20.52;;;9.60;;
2462;SDS011;1243;54.298;10.172;2023-01-26T03:58:47;13.45;;;8.27;;
2462;SDS011;1243;54.298;10.172;2023-01-26T04:01:21;18.38;;;10.70;;
2462;SDS011;1243;54.298;10.172;2023-01-26T04:03:52;15.07;;;8.55;;
2462;SDS011;1243;54.298;10.172;2023-01-26T04:06:39;20.60;;;11.00;;
2462;SDS011;1243;54.298;10.172;2023-01-26T04:09:25;24.95;;;10.30;;
2462;SDS011;1243;54.298;10.172;2023-01-26T04:11:51;16.08;;;9.82;;
2462;SDS011;1243;54.298;10.172;2023-01-26T04:14:17;15.37;;;8.37;;
2462;SDS011;1243;54.298;10.172;2023-01-26T04:17:02;17.50;;;9.07;;
2462;SDS011;1243;54.298;10.172;2023-01-26T04:19:47;18.02;;;8.80;;
2462;SDS011;1243;54.298;10.172;2023-01-26T04:22:35;17.92;;;9.40;;
2462;SDS011;1243;54.298;10.172;2023-01-26T04:25:07;19.02;;;8.95;;
2462;SDS011;1243;54.298;10.172;2023-01-26T04:27:34;24.73;;;11.38;;
2462;SDS011;1243;54.298;10.172;2023-01-26T04:30:00;17.50;;;10.77;;
2462;SDS011;1243;54.298;10.172;2023-01-26T04:32:27;15.25;;;9.93;;
2462;SDS011;1243;54.298;10.172;2023-01-26T04:34:53;20.98;;;9.55;;
2462;SDS011;1243;54.298;10.172;2023-01-26T04:37:19;16.40;;;10.07;;
2462;SDS011;1243;54.298;10.172;2023-01-26T04:39:45;20.73;;;10.07;;
2462;SDS011;1243;54.298;10.172;2023-01-26T04:42:10;16.30;;;9.20;;
2462;SDS011;1243;54.298;10.172;2023-01-26T04:44:36;23.60;;;11.40;;
2462;SDS011;1243;54.298;10.172;2023-01-26T04:47:02;19.80;;;9.43;;
2462;SDS011;1243;54.298;10.172;2023-01-26T04:49:28;18.27;;;10.50;;
2462;SDS011;1243;54.298;10.172;2023-01-26T04:51:54;15.63;;;9.53;;
2462;SDS011;1243;54.298;10.172;2023-01-26T04:54:20;17.67;;;11.23;;
2462;SDS011;1243;54.298;10.172;2023-01-26T04:56:45;22.20;;;9.70;;
2462;SDS011;1243;54.298;10.172;2023-01-26T04:59:11;15.30;;;9.17;;
2462;SDS011;1243;54.298;10.172;2023-01-26T05:01:37;13.55;;;9.70;;
2462;SDS011;1243;54.298;10.172;2023-01-26T05:04:03;18.67;;;10.50;;
2462;SDS011;1243;54.298;10.172;2023-01-26T05:06:29;14.57;;;9.40;;
2462;SDS011;1243;54.298;10.172;2023-01-26T05:08:56;14.73;;;8.15;;
2462;SDS011;1243;54.298;10.172;2023-01-26T05:11:22;12.68;;;8.23;;
2462;SDS011;1243;54.298;10.172;2023-01-26T05:13:48;16.90;;;8.93;;
2462;SDS011;1243;54.298;10.172;2023-01-26T05:16:13;13.03;;;8.00;;
2462;SDS011;1243;54.298;10.172;2023-01-26T05:18:40;16.75;;;9.73;;
2462;SDS011;1243;54.298;10.172;2023-01-26T05:21:06;18.52;;;9.20;;
2462;SDS011;1243;54.298;10.172;2023-01-26T05:23:33;14.60;;;8.13;;
2462;SDS011;1243;54.298;10.172;2023-01-26T05:25:58;14.50;;;9.37;;
2462;SDS011;1243;54.298;10.172;2023-01-26T05:28:24;14.50;;;9.10;;
2462;SDS011;1243;54.298;10.172;2023-01-26T05:30:50;13.50;;;8.50;;
2462;SDS011;1243;54.298;10.172;2023-01-26T05:33:16;17.57;;;9.17;;
2462;SDS011;1243;54.298;10.172;2023-01-26T05:35:46;13.23;;;7.85;;
2462;SDS011;1243;54.298;10.172;2023-01-26T05:38:13;13.23;;;8.68;;
2462;SDS011;1243;54.298;10.172;2023-01-26T05:40:39;12.75;;;9.50;;
2462;SDS011;1243;54.298;10.172;2023-01-26T05:43:04;14.70;;;9.20;;
2462;SDS011;1243;54.298;10.172;2023-01-26T05:45:32;13.38;;;8.18;;
2462;SDS011;1243;54.298;10.172;2023-01-26T05:47:58;17.42;;;9.32;;
2462;SDS011;1243;54.298;10.172;2023-01-26T05:50:24;21.37;;;10.57;;
2462;SDS011;1243;54.298;10.172;2023-01-26T05:52:50;17.03;;;7.80;;
2462;SDS011;1243;54.298;10.172;2023-01-26T05:55:16;12.80;;;8.30;;
2462;SDS011;1243;54.298;10.172;2023-01-26T05:57:41;18.63;;;9.07;;
2462;SDS011;1243;54.298;10.172;2023-01-26T06:00:07;17.90;;;9.47;;
2462;SDS011;1243;54.298;10.172;2023-01-26T06:02:34;21.58;;;10.65;;
2462;SDS011;1243;54.298;10.172;2023-01-26T06:04:59;14.00;;;8.80;;
2462;SDS011;1243;54.298;10.172;2023-01-26T06:07:25;15.80;;;8.80;;
2462;SDS011;1243;54.298;10.172;2023-01-26T06:09:51;12.77;;;8.27;;
2462;SDS011;1243;54.298;10.172;2023-01-26T06:12:18;12.93;;;8.15;;
2462;SDS011;1243;54.298;10.172;2023-01-26T06:14:45;17.80;;;10.20;;
2462;SDS011;1243;54.298;10.172;2023-01-26T06:17:12;18.20;;;9.07;;
2462;SDS011;1243;54.298;10.172;2023-01-26T06:19:38;14.23;;;8.97;;
2462;SDS011;1243;54.298;10.172;2023-01-26T06:22:07;24.67;;;10.00;;
2462;SDS011;1243;54.298;10.172;2023-01-26T06:24:37;18.23;;;9.60;;
2462;SDS011;1243;54.298;10.172;2023-01-26T06:27:03;11.50;;;8.97;;
2462;SDS011;1243;54.298;10.172;2023-01-26T06:29:31;14.10;;;8.63;;
2462;SDS011;1243;54.298;10.172;2023-01-26T06:31:58;13.80;;;8.18;;
2462;SDS011;1243;54.298;10.172;2023-01-26T06:34:24;16.77;;;11.25;;
2462;SDS011;1243;54.298;10.172;2023-01-26T06:36:50;15.73;;;9.93;;
2462;SDS011;1243;54.298;10.172;2023-01-26T06:39:16;19.67;;;9.77;;
2462;SDS011;1243;54.298;10.172;2023-01-26T06:41:42;14.77;;;8.77;;
2462;SDS011;1243;54.298;10.172;2023-01-26T06:44:08;17.20;;;8.90;;
2462;SDS011;1243;54.298;10.172;2023-01-26T06:46:34;21.00;;;11.02;;
2462;SDS011;1243;54.298;10.172;2023-01-26T06:49:01;16.52;;;9.63;;
2462;SDS011;1243;54.298;10.172;2023-01-26T06:54:02;17.23;;;10.35;;
2462;SDS011;1243;54.298;10.172;2023-01-26T06:56:28;21.97;;;10.70;;
2462;SDS011;1243;54.298;10.172;2023-01-26T06:58:53;14.87;;;9.00;;
2462;SDS011;1243;54.298;10.172;2023-01-26T07:01:20;21.60;;;10.63;;
2462;SDS011;1243;54.298;10.172;2023-01-26T07:03:47;19.90;;;10.48;;
2462;SDS011;1243;54.298;10.172;2023-01-26T07:06:14;21.97;;;10.00;;
2462;SDS011;1243;54.298;10.172;2023-01-26T07:08:40;18.77;;;10.00;;
2462;SDS011;1243;54.298;10.172;2023-01-26T07:11:06;16.73;;;10.17;;
2462;SDS011;1243;54.298;10.172;2023-01-26T07:13:32;18.70;;;10.77;;
2462;SDS011;1243;54.298;10.172;2023-01-26T07:16:01;24.33;;;9.40;;
2462;SDS011;1243;54.298;10.172;2023-01-26T07:18:28;29.40;;;14.33;;
2462;SDS011;1243;54.298;10.172;2023-01-26T07:20:58;18.93;;;10.10;;
2462;SDS011;1243;54.298;10.172;2023-01-26T07:23:31;25.55;;;11.35;;
2462;SDS011;1243;54.298;10.172;2023-01-26T07:25:57;16.10;;;10.63;;
2462;SDS011;1243;54.298;10.172;2023-01-26T07:28:23;19.15;;;10.60;;
2462;SDS011;1243;54.298;10.172;2023-01-26T07:30:50;20.85;;;11.23;;
2462;SDS011;1243;54.298;10.172;2023-01-26T07:33:16;24.90;;;11.80;;
2462;SDS011;1243;54.298;10.172;2023-01-26T07:35:42;20.80;;;11.40;;
2462;SDS011;1243;54.298;10.172;2023-01-26T07:38:08;18.50;;;10.27;;
2462;SDS011;1243;54.298;10.172;2023-01-26T07:40:33;19.37;;;9.50;;
2462;SDS011;1243;54.298;10.172;2023-01-26T07:42:59;29.70;;;13.10;;
2462;SDS011;1243;54.298;10.172;2023-01-26T07:45:25;19.10;;;10.97;;
2462;SDS011;1243;54.298;10.172;2023-01-26T07:47:54;18.60;;;9.80;;
2462;SDS011;1243;54.298;10.172;2023-01-26T07:50:21;19.40;;;10.48;;
2462;SDS011;1243;54.298;10.172;2023-01-26T07:52:47;21.90;;;12.57;;
2462;SDS011;1243;54.298;10.172;2023-01-26T07:55:13;17.70;;;10.53;;
2462;SDS011;1243;54.298;10.172;2023-01-26T07:57:39;28.52;;;11.75;;
2462;SDS011;1243;54.298;10.172;2023-01-26T08:00:05;22.50;;;12.53;;
2462;SDS011;1243;54.298;10.172;2023-01-26T08:02:32;22.27;;;11.87;;
2462;SDS011;1243;54.298;10.172;2023-01-26T08:04:57;23.43;;;11.63;;
2462;SDS011;1243;54.298;10.172;2023-01-26T08:07:24;24.30;;;11.73;;
2462;SDS011;1243;54.298;10.172;2023-01-26T08:09:50;22.10;;;12.10;;
2462;SDS011;1243;54.298;10.172;2023-01-26T08:12:16;20.33;;;11.37;;
2462;SDS011;1243;54.298;10.172;2023-01-26T08:14:42;21.70;;;10.73;;
2462;SDS011;1243;54.298;10.172;2023-01-26T08:17:07;31.00;;;12.63;;
2462;SDS011;1243;54.298;10.172;2023-01-26T08:19:33;28.53;;;12.50;;
2462;SDS011;1243;54.298;10.172;2023-01-26T08:21:59;18.63;;;11.03;;
2462;SDS011;1243;54.298;10.172;2023-01-26T08:24:24;18.67;;;11.63;;
2462;SDS011;1243;54.298;10.172;2023-01-26T08:26:52;24.33;;;11.17;;
2462;SDS011;1243;54.298;10.172;2023-01-26T08:29:18;22.30;;;11.17;;
2462;SDS011;1243;54.298;10.172;2023-01-26T08:31:45;21.47;;;10.93;;
2462;SDS011;1243;54.298;10.172;2023-01-26T08:34:10;24.63;;;12.07;;
2462;SDS011;1243;54.298;10.172;2023-01-26T08:36:37;20.47;;;10.63;;
2462;SDS011;1243;54.298;10.172;2023-01-26T08:39:03;23.03;;;11.90;;
2462;SDS011;1243;54.298;10.172;2023-01-26T08:41:29;24.30;;;12.33;;
2462;SDS011;1243;54.298;10.172;2023-01-26T08:43:56;20.70;;;10.37;;
2462;SDS011;1243;54.298;10.172;2023-01-26T08:46:23;27.43;;;11.73;;
2462;SDS011;1243;54.298;10.172;2023-01-26T08:48:52;24.47;;;11.17;;
2462;SDS011;1243;54.298;10.172;2023-01-26T08:51:17;24.03;;;12.17;;
2462;SDS011;1243;54.298;10.172;2023-01-26T08:53:43;25.70;;;11.50;;
2462;SDS011;1243;54.298;10.172;2023-01-26T08:56:10;24.50;;;12.90;;
2462;SDS011;1243;54.298;10.172;2023-01-26T08:58:36;22.40;;;11.37;;
2462;SDS011;1243;54.298;10.172;2023-01-26T09:01:06;22.07;;;11.43;;
2462;SDS011;1243;54.298;10.172;2023-01-26T09:03:35;24.43;;;10.90;;
2462;SDS011;1243;54.298;10.172;2023-01-26T09:06:02;19.83;;;10.70;;
2462;SDS011;1243;54.298;10.172;2023-01-26T09:08:28;24.73;;;12.23;;
2462;SDS011;1243;54.298;10.172;2023-01-26T09:10:54;21.47;;;11.57;;
2462;SDS011;1243;54.298;10.172;2023-01-26T09:13:20;20.73;;;13.00;;
2462;SDS011;1243;54.298;10.172;2023-01-26T09:15:46;31.17;;;11.53;;
2462;SDS011;1243;54.298;10.172;2023-01-26T09:18:12;23.77;;;10.80;;
2462;SDS011;1243;54.298;10.172;2023-01-26T09:20:38;21.57;;;10.53;;
2462;SDS011;1243;54.298;10.172;2023-01-26T09:23:04;24.70;;;12.10;;
2462;SDS011;1243;54.298;10.172;2023-01-26T09:25:30;20.07;;;10.30;;
2462;SDS011;1243;54.298;10.172;2023-01-26T09:27:56;27.90;;;10.97;;
2462;SDS011;1243;54.298;10.172;2023-01-26T09:30:22;29.87;;;10.77;;
2462;SDS011;1243;54.298;10.172;2023-01-26T09:32:51;20.13;;;9.77;;
2462;SDS011;1243;54.298;10.172;2023-01-26T09:35:17;15.23;;;10.53;;
2462;SDS011;1243;54.298;10.172;2023-01-26T09:37:43;24.03;;;12.30;;
2462;SDS011;1243;54.298;10.172;2023-01-26T09:40:59;23.77;;;11.70;;
2462;SDS011;1243;54.298;10.172;2023-01-26T09:46:18;23.53;;;9.90;;
2462;SDS011;1243;54.298;10.172;2023-01-26T09:48:44;17.77;;;10.03;;
2462;SDS011;1243;54.298;10.172;2023-01-26T09:57:01;21.90;;;12.23;;
2462;SDS011;1243;54.298;10.172;2023-01-26T10:05:10;23.03;;;10.77;;
2462;SDS011;1243;54.298;10.172;2023-01-26T10:07:43;20.77;;;10.33;;
2462;SDS011;1243;54.298;10.172;2023-01-26T10:10:14;34.73;;;13.73;;
2462;SDS011;1243;54.298;10.172;2023-01-26T10:12:48;25.57;;;11.07;;
2462;SDS011;1243;54.298;10.172;2023-01-26T10:15:32;26.47;;;11.73;;
2462;SDS011;1243;54.298;10.172;2023-01-26T10:18:06;24.33;;;11.70;;
2462;SDS011;1243;54.298;10.172;2023-01-26T10:20:46;17.40;;;9.03;;
2462;SDS011;1243;54.298;10.172;2023-01-26T10:23:16;20.17;;;10.30;;
2462;SDS011;1243;54.298;10.172;2023-01-26T10:25:48;24.30;;;11.60;;
2462;SDS011;1243;54.298;10.172;2023-01-26T10:28:29;27.10;;;10.53;;
2462;SDS011;1243;54.298;10.172;2023-01-26T10:30:59;31.73;;;10.57;;
2462;SDS011;1243;54.298;10.172;2023-01-26T10:33:34;19.83;;;10.13;;
2462;SDS011;1243;54.298;10.172;2023-01-26T10:36:02;15.27;;;10.07;;
2462;SDS011;1243;54.298;10.172;2023-01-26T10:43:34;27.40;;;12.97;;
2462;SDS011;1243;54.298;10.172;2023-01-26T10:46:02;24.10;;;11.40;;
2462;SDS011;1243;54.298;10.172;2023-01-26T10:48:28;22.40;;;12.57;;
2462;SDS011;1243;54.298;10.172;2023-01-26T10:50:54;21.40;;;11.60;;
2462;SDS011;1243;54.298;10.172;2023-01-26T10:53:40;24.17;;;10.57;;
2462;SDS011;1243;54.298;10.172;2023-01-26T10:56:10;26.60;;;11.77;;
2462;SDS011;1243;54.298;10.172;2023-01-26T11:01:26;29.20;;;12.90;;
2462;SDS011;1243;54.298;10.172;2023-01-26T11:04:04;21.73;;;13.33;;
2462;SDS011;1243;54.298;10.172;2023-01-26T11:06:36;31.40;;;13.33;;
2462;SDS011;1243;54.298;10.172;2023-01-26T11:09:25;26.00;;;12.07;;
2462;SDS011;1243;54.298;10.172;2023-01-26T11:14:21;23.83;;;11.77;;
2462;SDS011;1243;54.298;10.172;2023-01-26T11:16:58;24.20;;;11.67;;
2462;SDS011;1243;54.298;10.172;2023-01-26T11:42:12;21.27;;;12.23;;
2462;SDS011;1243;54.298;10.172;2023-01-26T11:44:56;23.63;;;13.00;;
2462;SDS011;1243;54.298;10.172;2023-01-26T11:48:00;23.60;;;12.57;;
2462;SDS011;1243;54.298;10.172;2023-01-26T11:53:18;18.77;;;10.37;;
2462;SDS011;1243;54.298;10.172;2023-01-26T11:58:29;21.20;;;9.40;;
2462;SDS011;1243;54.298;10.172;2023-01-26T12:01:17;16.57;;;8.73;;
2462;SDS011;1243;54.298;10.172;2023-01-26T12:03:53;37.50;;;9.90;;
2462;SDS011;1243;54.298;10.172;2023-01-26T12:22:52;15.83;;;8.27;;
2462;SDS011;1243;54.298;10.172;2023-01-26T12:25:28;15.13;;;7.23;;
2462;SDS011;1243;54.298;10.172;2023-01-26T12:30:54;19.47;;;5.90;;
2462;SDS011;1243;54.298;10.172;2023-01-26T12:33:42;8.57;;;5.20;;
2462;SDS011;1243;54.298;10.172;2023-01-26T12:46:46;21.57;;;7.10;;
2462;SDS011;1243;54.298;10.172;2023-01-26T12:49:19;16.67;;;5.53;;
2462;SDS011;1243;54.298;10.172;2023-01-26T12:51:52;13.27;;;5.33;;
2462;SDS011;1243;54.298;10.172;2023-01-26T12:57:18;17.17;;;4.63;;
2462;SDS011;1243;54.298;10.172;2023-01-26T12:59:48;10.33;;;4.80;;
2462;SDS011;1243;54.298;10.172;2023-01-26T13:02:21;21.20;;;5.83;;
2462;SDS011;1243;54.298;10.172;2023-01-26T13:04:51;6.80;;;4.40;;
2462;SDS011;1243;54.298;10.172;2023-01-26T13:08:00;10.10;;;3.90;;
2462;SDS011;1243;54.298;10.172;2023-01-26T13:15:25;10.53;;;3.70;;
2462;SDS011;1243;54.298;10.172;2023-01-26T13:18:02;11.03;;;3.37;;
2462;SDS011;1243;54.298;10.172;2023-01-26T13:26:17;11.07;;;4.40;;
2462;SDS011;1243;54.298;10.172;2023-01-26T13:28:45;15.77;;;4.07;;
2462;SDS011;1243;54.298;10.172;2023-01-26T13:31:12;4.13;;;3.73;;
2462;SDS011;1243;54.298;10.172;2023-01-26T13:33:52;13.17;;;5.87;;
2462;SDS011;1243;54.298;10.172;2023-01-26T13:36:18;8.57;;;4.93;;
2462;SDS011;1243;54.298;10.172;2023-01-26T13:38:50;10.27;;;5.60;;
2462;SDS011;1243;54.298;10.172;2023-01-26T13:41:23;8.13;;;4.70;;
2462;SDS011;1243;54.298;10.172;2023-01-26T13:43:51;7.10;;;4.00;;
2462;SDS011;1243;54.298;10.172;2023-01-26T13:46:37;7.10;;;5.20;;
2462;SDS011;1243;54.298;10.172;2023-01-26T13:49:24;8.33;;;3.90;;
2462;SDS011;1243;54.298;10.172;2023-01-26T13:51:51;9.00;;;4.20;;
2462;SDS011;1243;54.298;10.172;2023-01-26T13:54:17;5.50;;;4.20;;
2462;SDS011;1243;54.298;10.172;2023-01-26T13:59:28;7.90;;;4.87;;
2462;SDS011;1243;54.298;10.172;2023-01-26T14:01:55;10.07;;;4.00;;
2462;SDS011;1243;54.298;10.172;2023-01-26T14:04:25;10.80;;;4.80;;
2462;SDS011;1243;54.298;10.172;2023-01-26T14:07:11;12.33;;;5.37;;
2462;SDS011;1243;54.298;10.172;2023-01-26T14:09:49;11.07;;;4.67;;
2462;SDS011;1243;54.298;10.172;2023-01-26T14:12:18;10.80;;;6.23;;
2462;SDS011;1243;54.298;10.172;2023-01-26T14:14:47;6.53;;;3.80;;
2462;SDS011;1243;54.298;10.172;2023-01-26T14:17:29;10.07;;;4.70;;
2462;SDS011;1243;54.298;10.172;2023-01-26T14:19:56;6.47;;;3.97;;
2462;SDS011;1243;54.298;10.172;2023-01-26T14:22:24;5.97;;;4.50;;
2462;SDS011;1243;54.298;10.172;2023-01-26T14:24:50;8.87;;;4.07;;
2462;SDS011;1243;54.298;10.172;2023-01-26T14:27:26;8.90;;;3.47;;
2462;SDS011;1243;54.298;10.172;2023-01-26T14:30:01;6.13;;;3.97;;
2462;SDS011;1243;54.298;10.172;2023-01-26T14:32:48;7.70;;;4.13;;
2462;SDS011;1243;54.298;10.172;2023-01-26T14:35:19;5.80;;;3.70;;
2462;SDS011;1243;54.298;10.172;2023-01-26T14:37:48;10.60;;;4.50;;
2462;SDS011;1243;54.298;10.172;2023-01-26T14:40:28;8.27;;;3.80;;
2462;SDS011;1243;54.298;10.172;2023-01-26T14:42:54;8.47;;;3.70;;
2462;SDS011;1243;54.298;10.172;2023-01-26T14:45:25;11.87;;;3.90;;
2462;SDS011;1243;54.298;10.172;2023-01-26T14:47:55;4.80;;;3.70;;
2462;SDS011;1243;54.298;10.172;2023-01-26T14:50:28;15.70;;;3.90;;
2462;SDS011;1243;54.298;10.172;2023-01-26T14:52:56;8.80;;;4.17;;
2462;SDS011;1243;54.298;10.172;2023-01-26T14:57:57;6.50;;;4.20;;
2462;SDS011;1243;54.298;10.172;2023-01-26T15:00:29;7.80;;;4.40;;
2462;SDS011;1243;54.298;10.172;2023-01-26T15:03:02;13.23;;;4.50;;
2462;SDS011;1243;54.298;10.172;2023-01-26T15:05:37;6.10;;;3.50;;
2462;SDS011;1243;54.298;10.172;2023-01-26T15:08:20;7.13;;;4.60;;
2462;SDS011;1243;54.298;10.172;2023-01-26T15:10:54;5.53;;;3.23;;
2462;SDS011;1243;54.298;10.172;2023-01-26T15:13:43;12.17;;;5.07;;
2462;SDS011;1243;54.298;10.172;2023-01-26T15:16:15;4.70;;;3.53;;
2462;SDS011;1243;54.298;10.172;2023-01-26T15:18:42;10.00;;;4.57;;
2462;SDS011;1243;54.298;10.172;2023-01-26T15:23:41;7.87;;;4.83;;
2462;SDS011;1243;54.298;10.172;2023-01-26T15:28:50;16.57;;;5.63;;
2462;SDS011;1243;54.298;10.172;2023-01-26T15:31:19;17.03;;;6.07;;
2462;SDS011;1243;54.298;10.172;2023-01-26T15:33:48;8.60;;;5.00;;
2462;SDS011;1243;54.298;10.172;2023-01-26T15:36:20;14.00;;;6.57;;
2462;SDS011;1243;54.298;10.172;2023-01-26T15:38:56;10.50;;;5.60;;
2462;SDS011;1243;54.298;10.172;2023-01-26T15:41:22;11.13;;;5.63;;
2462;SDS011;1243;54.298;10.172;2023-01-26T15:43:48;15.63;;;6.27;;
2462;SDS011;1243;54.298;10.172;2023-01-26T15:46:14;17.63;;;6.57;;
2462;SDS011;1243;54.298;10.172;2023-01-26T15:48:39;14.20;;;7.23;;
2462;SDS011;1243;54.298;10.172;2023-01-26T15:51:12;14.83;;;7.63;;
2462;SDS011;1243;54.298;10.172;2023-01-26T15:53:38;13.13;;;6.77;;
2462;SDS011;1243;54.298;10.172;2023-01-26T15:56:04;11.60;;;6.40;;
2462;SDS011;1243;54.298;10.172;2023-01-26T15:58:33;11.50;;;7.63;;
2462;SDS011;1243;54.298;10.172;2023-01-26T16:01:00;11.60;;;7.40;;
2462;SDS011;1243;54.298;10.172;2023-01-26T16:03:26;15.23;;;6.70;;
2462;SDS011;1243;54.298;10.172;2023-01-26T16:05:52;22.20;;;8.87;;
2462;SDS011;1243;54.298;10.172;2023-01-26T16:08:18;15.30;;;9.37;;
2462;SDS011;1243;54.298;10.172;2023-01-26T16:10:44;21.10;;;10.80;;
2462;SDS011;1243;54.298;10.172;2023-01-26T16:13:11;17.33;;;7.40;;
2462;SDS011;1243;54.298;10.172;2023-01-26T16:15:40;19.00;;;8.70;;
2462;SDS011;1243;54.298;10.172;2023-01-26T16:18:07;14.10;;;6.40;;
2462;SDS011;1243;54.298;10.172;2023-01-26T16:20:34;12.67;;;6.17;;
2462;SDS011;1243;54.298;10.172;2023-01-26T16:23:02;10.67;;;7.40;;
2462;SDS011;1243;54.298;10.172;2023-01-26T16:25:30;12.67;;;6.37;;
2462;SDS011;1243;54.298;10.172;2023-01-26T16:27:57;15.67;;;7.67;;
2462;SDS011;1243;54.298;10.172;2023-01-26T16:30:24;13.43;;;7.57;;
2462;SDS011;1243;54.298;10.172;2023-01-26T16:32:50;11.03;;;7.53;;
2462;SDS011;1243;54.298;10.172;2023-01-26T16:35:18;13.20;;;7.83;;
2462;SDS011;1243;54.298;10.172;2023-01-26T16:37:45;14.33;;;8.77;;
2462;SDS011;1243;54.298;10.172;2023-01-26T16:40:12;14.80;;;8.53;;
2462;SDS011;1243;54.298;10.172;2023-01-26T16:42:42;15.70;;;9.20;;
2462;SDS011;1243;54.298;10.172;2023-01-26T16:45:28;19.60;;;8.47;;
2462;SDS011;1243;54.298;10.172;2023-01-26T16:47:54;22.70;;;8.90;;
2462;SDS011;1243;54.298;10.172;2023-01-26T16:50:21;10.67;;;7.80;;
2462;SDS011;1243;54.298;10.172;2023-01-26T16:52:48;11.40;;;8.17;;
2462;SDS011;1243;54.298;10.172;2023-01-26T16:55:14;14.33;;;7.90;;